This is the latest recevied weather packets stored in our database for station/object KE9DBJ. If no packets are shown the sender has not sent any weather packets the latest 10 day(s).
| Time | Temp. | Humidity | Pressure | Rain* | Wind** | Luminosity | Snow |
|---|---|---|---|---|---|---|---|
| 1777756520 | 13.33° C | 34% | 1016.5 hPa | 0 mm | - | - | - |
| 1777755919 | 13.33° C | 34% | 1016.5 hPa | 0 mm | - | - | - |
| 1777748147 | 15° C | 35% | 1017.2 hPa | 0 mm | - | - | - |
| 1777747518 | 15° C | 36% | 1017.4 hPa | 0 mm | - | - | - |
| 1777741525 | 13.33° C | 40% | 1017.8 hPa | 0 mm | - | - | - |
| 1777740929 | 12.78° C | 39% | 1017.9 hPa | 0 mm | - | - | - |
| 1777739124 | 13.89° C | 43% | 1018.3 hPa | 0 mm | - | - | - |
| 1777731922 | 11.67° C | 49% | 1018.4 hPa | 0 mm | - | - | - |
| 1777727716 | 7.22° C | 79% | 1018.4 hPa | 0 mm | - | - | - |
| 1777720552 | 2.22° C | 99% | 1017.4 hPa | 0 mm | - | - | - |
| 1777719323 | 2.22° C | 99% | 1017.5 hPa | 0 mm | - | - | - |
| 1777713317 | 2.22° C | 99% | 1017.6 hPa | 0 mm | - | - | - |
| 1777710333 | 2.78° C | 99% | 1017.5 hPa | 0 mm | - | - | - |
| 1777707318 | 2.78° C | 99% | 1017.2 hPa | 0 mm | - | - | - |
| 1777706722 | 2.22° C | 99% | 1017.3 hPa | 0 mm | - | - | - |
| 1777706127 | 2.22° C | 99% | 1017.4 hPa | 0 mm | - | - | - |
| 1777704917 | 1.67° C | 99% | 1017.3 hPa | 0 mm | - | - | - |
| 1777704322 | 1.67° C | 99% | 1017.4 hPa | 0 mm | - | - | - |
| 1777703726 | 1.67° C | 99% | 1017.2 hPa | 0 mm | - | - | - |
| 1777702516 | 2.22° C | 99% | 1017.5 hPa | 0 mm | - | - | - |
| 1777692915 | 3.89° C | 99% | 1017.8 hPa | 0 mm | - | - | - |
| 1777689915 | 4.44° C | 97% | 1017.6 hPa | 0 mm | - | - | - |
| 1777689327 | 5° C | 95% | 1017.4 hPa | 0 mm | - | - | - |
| 1777687523 | 5.56° C | 90% | 1017.1 hPa | 0 mm | - | - | - |
| 1777686333 | 6.11° C | 83% | 1016.6 hPa | 0 mm | - | - | - |
* Rain latest hour (hover to see other rain measurements)
** Current wind speed in m/s (hover to see current wind gust speed)